Time;durP1;ratioP1;P1;durP2;ratioP2;P2;SDS_P1;SDS_P2;PMS_P1;PMS_P2;Temp;Humidity;BMP_temperature;BMP_pressure;BME280_temperature;BME280_humidity;BME280_pressure;Samples;Min_cycle;Max_cycle;Signal;HPM_P1;HPM_P2
2022/02/07 00:00:12;;;;;;;0.50;0.50;;;;;;;-145.69;100.00;71677.00;5093189;28;20225;-76
2022/02/07 00:03:02;;;;;;;0.77;0.40;;;;;;;-145.69;100.00;71651.13;5097046;28;20198;-76
2022/02/07 00:05:30;;;;;;;0.40;0.40;;;;;;;-145.69;100.00;71661.09;5104700;28;20221;-76
2022/02/07 00:07:57;;;;;;;0.40;0.40;;;;;;;-145.69;100.00;71665.06;5106425;28;20190;-76
2022/02/07 00:10:25;;;;;;;0.40;0.40;;;;;;;-145.69;100.00;71673.03;5092676;28;20322;-76
2022/02/07 00:12:53;;;;;;;0.40;0.40;;;;;;;-145.69;100.00;71692.94;5099499;28;20620;-75
2022/02/07 00:15:20;;;;;;;0.57;0.57;;;;;;;-145.69;100.00;71692.94;5113482;28;20200;-76
2022/02/07 00:17:47;;;;;;;0.47;0.47;;;;;;;-145.69;100.00;71702.88;5113040;28;20220;-76
2022/02/07 00:20:18;;;;;;;0.50;0.50;;;;;;;-145.69;100.00;71722.78;5112954;28;20201;-75
2022/02/07 00:22:45;;;;;;;0.50;0.50;;;;;;;-145.69;100.00;71758.59;5113219;28;20652;-76
2022/02/07 00:25:12;;;;;;;0.70;0.60;;;;;;;-145.69;100.00;71778.50;5112187;28;20198;-76
2022/02/07 00:27:38;;;;;;;1.90;0.63;;;;;;;-145.69;100.00;71800.38;5092854;28;20652;-75
2022/02/07 00:30:09;;;;;;;0.43;0.43;;;;;;;-145.69;100.00;71903.88;5092496;28;20198;-74
2022/02/07 00:32:36;;;;;;;0.37;0.37;;;;;;;-145.69;100.00;72047.16;5100959;28;20530;-74
2022/02/07 00:35:03;;;;;;;0.40;0.40;;;;;;;-145.69;100.00;72110.84;5093822;28;20610;-74
2022/02/07 00:37:31;;;;;;;0.40;0.40;;;;;;;-145.69;100.00;72132.75;5110088;28;20197;-73
2022/02/07 00:40:04;;;;;;;1.80;0.50;;;;;;;-145.69;100.00;72134.72;5112148;28;20674;-74
2022/02/07 00:42:34;;;;;;;0.63;0.40;;;;;;;-145.69;100.00;72144.69;5098780;28;20233;-74
2022/02/07 00:45:12;;;;;;;0.67;0.40;;;;;;;-145.69;100.00;72154.63;5096885;28;20206;-74
2022/02/07 00:47:40;;;;;;;1.03;0.40;;;;;;;-145.69;100.00;72146.69;5096717;28;20552;-72
2022/02/07 00:50:07;;;;;;;3.50;0.50;;;;;;;-145.69;100.00;72134.72;5096626;28;20606;-73
2022/02/07 00:52:33;;;;;;;0.50;0.50;;;;;;;-145.69;100.00;72154.63;5096933;28;20194;-73
2022/02/07 00:55:00;;;;;;;5.70;0.50;;;;;;;-145.69;100.00;72182.50;5096745;28;20194;-73
2022/02/07 00:57:26;;;;;;;0.20;0.20;;;;;;;-145.69;100.00;72208.38;5096656;28;20542;-73
2022/02/07 00:59:53;;;;;;;0.63;0.50;;;;;;;-145.69;100.00;72200.41;5115363;28;20198;-73
2022/02/07 01:02:19;;;;;;;0.40;0.40;;;;;;;-145.69;100.00;72218.31;5097262;28;20580;-74
2022/02/07 01:04:47;;;;;;;0.50;0.50;;;;;;;-145.69;100.00;72224.28;5096583;28;20206;-74
2022/02/07 01:07:13;;;;;;;1.47;0.47;;;;;;;-145.69;100.00;72234.25;5112331;28;20194;-74
2022/02/07 01:09:43;;;;;;;1.30;0.50;;;;;;;-145.69;100.00;72242.22;5116372;28;20201;-74
2022/02/07 01:12:17;;;;;;;3.33;0.50;;;;;;;-145.69;100.00;72258.13;5116375;28;20229;-74
2022/02/07 01:14:52;;;;;;;0.50;0.50;;;;;;;-145.69;100.00;72258.13;5116344;28;20280;-74
2022/02/07 01:23:22;;;;;;;0.50;0.50;;;;;;;-145.69;100.00;72272.06;5130755;27;20362;-75
2022/02/07 01:53:26;;;;;;;0.50;0.50;;;;;;;-145.69;100.00;72339.72;5110167;28;20208;-75
2022/02/07 01:55:57;;;;;;;0.60;0.60;;;;;;;-145.69;100.00;72349.69;5110186;28;20193;-74
2022/02/07 01:58:25;;;;;;;1.90;0.40;;;;;;;-145.69;100.00;72355.66;5109820;28;20205;-74
2022/02/07 02:00:52;;;;;;;1.13;0.50;;;;;;;-145.69;100.00;72369.59;5109604;28;20644;-75
2022/02/07 02:03:18;;;;;;;1.53;0.63;;;;;;;-145.69;100.00;72367.59;5109716;28;20198;-74
2022/02/07 02:05:45;;;;;;;0.53;0.50;;;;;;;-145.69;100.00;72383.53;5109808;28;20198;-74
2022/02/07 02:08:13;;;;;;;1.47;0.70;;;;;;;-145.69;100.00;72383.53;5109806;28;20219;-74
2022/02/07 02:10:43;;;;;;;3.87;0.70;;;;;;;-145.69;100.00;72395.47;5109584;28;20194;-74
2022/02/07 02:13:14;;;;;;;0.67;0.63;;;;;;;-145.69;100.00;72393.47;5109701;28;20198;-75
2022/02/07 02:15:47;;;;;;;2.60;0.70;;;;;;;-145.69;100.00;72397.44;5109831;28;20656;-74
2022/02/07 02:35:25;;;;;;;1.07;0.70;;;;;;;-145.69;100.00;72421.34;5110386;28;20686;-74
2022/02/07 02:37:56;;;;;;;1.63;0.90;;;;;;;-145.69;100.00;72429.28;5108124;28;20652;-74
2022/02/07 02:45:51;;;;;;;9.03;1.10;;;;;;;-145.69;100.00;72445.22;5110486;28;20209;-73
2022/02/07 02:48:21;;;;;;;2.50;1.30;;;;;;;-145.69;100.00;72441.25;5109779;28;20190;-74
2022/02/07 02:50:51;;;;;;;2.97;0.83;;;;;;;-145.69;100.00;72447.22;5110416;28;20196;-74
2022/02/07 02:53:18;;;;;;;1.47;0.90;;;;;;;-145.69;100.00;72453.19;5109448;28;20193;-74
2022/02/07 02:55:49;;;;;;;4.47;1.40;;;;;;;-145.69;100.00;72473.09;5110308;28;20221;-73
2022/02/07 02:58:18;;;;;;;4.17;1.30;;;;;;;-145.69;100.00;72465.13;5110020;28;20591;-74
2022/02/07 03:00:46;;;;;;;4.97;1.33;;;;;;;-145.69;100.00;72485.03;5109922;28;20288;-73
2022/02/07 03:03:12;;;;;;;4.83;1.07;;;;;;;-145.69;100.00;72502.94;5109797;28;20692;-73
2022/02/07 03:05:39;;;;;;;6.80;1.13;;;;;;;-145.69;100.00;72504.94;5109667;28;20272;-73
2022/02/07 03:08:06;;;;;;;1.77;1.23;;;;;;;-145.69;100.00;72508.91;5109980;28;20240;-73
2022/02/07 03:10:43;;;;;;;5.73;1.43;;;;;;;-145.69;100.00;72508.91;5109850;28;20190;-73
2022/02/07 03:13:14;;;;;;;4.30;1.10;;;;;;;-145.69;100.00;72510.91;5109628;28;20200;-73
2022/02/07 03:18:26;;;;;;;3.77;1.30;;;;;;;-145.69;100.00;72528.81;5109450;28;20301;-73
2022/02/07 03:20:53;;;;;;;5.33;1.27;;;;;;;-145.69;100.00;72534.78;5109801;28;20224;-74
2022/02/07 03:23:20;;;;;;;2.67;1.30;;;;;;;-145.69;100.00;72528.81;5109273;28;20229;-73
2022/02/07 03:25:47;;;;;;;3.87;1.20;;;;;;;-145.69;100.00;72544.75;5109668;28;20198;-73
2022/02/07 03:28:15;;;;;;;4.27;1.73;;;;;;;-145.69;100.00;72538.78;5109349;28;20194;-73
2022/02/07 03:30:41;;;;;;;6.57;1.70;;;;;;;-145.69;100.00;72540.75;5109539;28;20193;-74
2022/02/07 03:33:08;;;;;;;7.40;1.30;;;;;;;-145.69;100.00;72554.69;5108851;28;20190;-73
2022/02/07 03:35:35;;;;;;;3.43;1.17;;;;;;;-145.69;100.00;72546.72;5094938;28;20213;-73
2022/02/07 03:38:02;;;;;;;8.53;1.50;;;;;;;-145.69;100.00;72544.75;5095614;28;20198;-74
2022/02/07 03:40:28;;;;;;;3.83;1.20;;;;;;;-145.69;100.00;72556.69;5095479;28;20253;-73
2022/02/07 03:42:55;;;;;;;1.57;1.00;;;;;;;-145.69;100.00;72560.66;5095407;28;20225;-73
2022/02/07 03:45:22;;;;;;;2.97;1.10;;;;;;;-145.69;100.00;72572.59;5095605;28;20205;-73
2022/02/07 03:47:49;;;;;;;5.27;1.30;;;;;;;-145.69;100.00;72580.56;5095334;28;20652;-73
2022/02/07 03:50:16;;;;;;;4.37;1.13;;;;;;;-145.69;100.00;72576.59;5095454;28;20197;-73
2022/02/07 03:52:42;;;;;;;7.03;1.40;;;;;;;-145.69;100.00;72588.53;5095361;28;20190;-73
2022/02/07 03:55:09;;;;;;;5.40;1.50;;;;;;;-145.69;100.00;72584.56;5095762;28;20235;-73
2022/02/07 03:57:35;;;;;;;1.43;1.30;;;;;;;-145.69;100.00;72588.53;5095303;28;20194;-73
2022/02/07 04:00:05;;;;;;;6.30;1.43;;;;;;;-145.69;100.00;72608.44;5095058;28;20190;-73
2022/02/07 04:02:32;;;;;;;6.30;1.30;;;;;;;-145.69;100.00;72624.34;5094944;28;20305;-74
2022/02/07 04:05:19;;;;;;;4.90;1.53;;;;;;;-145.69;100.00;72634.31;5095175;28;20194;-73
2022/02/07 04:07:45;;;;;;;9.20;1.90;;;;;;;-145.69;100.00;72640.28;5095076;28;20568;-73
2022/02/07 04:10:12;;;;;;;9.90;1.87;;;;;;;-145.69;100.00;72648.25;5095176;28;20190;-73
2022/02/07 04:12:40;;;;;;;2.83;1.50;;;;;;;-145.69;100.00;72654.22;5095169;28;20202;-73
2022/02/07 04:15:14;;;;;;;5.17;1.70;;;;;;;-145.69;100.00;72656.22;5094821;28;20197;-73
2022/02/07 04:17:46;;;;;;;4.07;1.53;;;;;;;-145.69;100.00;72680.09;5095032;28;20190;-73
2022/02/07 04:20:12;;;;;;;7.60;1.80;;;;;;;-145.69;100.00;72682.09;5094781;28;20285;-73
2022/02/07 04:22:39;;;;;;;4.57;1.60;;;;;;;-145.69;100.00;72711.94;5094634;28;20261;-73
2022/02/07 04:25:06;;;;;;;4.43;1.40;;;;;;;-145.69;100.00;72703.97;5094382;28;20203;-74
2022/02/07 04:27:33;;;;;;;3.40;1.40;;;;;;;-145.69;100.00;72723.88;5092721;28;20191;-74
2022/02/07 04:29:59;;;;;;;2.93;1.00;;;;;;;-145.69;100.00;72749.75;5094458;28;20243;-73
2022/02/07 04:32:26;;;;;;;4.77;1.10;;;;;;;-145.69;100.00;72741.78;5094429;28;20194;-73
2022/02/07 04:34:53;;;;;;;2.50;1.00;;;;;;;-145.69;100.00;72749.75;5094427;28;20190;-74
2022/02/07 04:37:20;;;;;;;2.30;0.90;;;;;;;-145.69;100.00;72759.72;5094494;28;20591;-74
2022/02/07 04:39:46;;;;;;;1.50;0.80;;;;;;;-145.69;100.00;72755.72;5094410;28;20558;-73
2022/02/07 04:42:13;;;;;;;1.87;0.80;;;;;;;-145.69;100.00;72739.81;5094321;28;20561;-74
2022/02/07 04:44:49;;;;;;;1.30;0.87;;;;;;;-145.69;100.00;72755.72;5094614;28;20205;-74
2022/02/07 04:47:32;;;;;;;0.70;0.70;;;;;;;-145.69;100.00;72767.69;5093666;28;20288;-74
2022/02/07 04:50:21;;;;;;;0.83;0.60;;;;;;;-145.69;100.00;72791.56;5094413;28;20598;-74
2022/02/07 04:53:09;;;;;;;0.67;0.67;;;;;;;-145.69;100.00;72799.53;5094069;28;20661;-74
2022/02/07 04:55:41;;;;;;;0.90;0.80;;;;;;;-145.69;100.00;72799.53;5094424;28;20222;-74
2022/02/07 04:58:13;;;;;;;0.90;0.60;;;;;;;-145.69;100.00;72807.47;5093341;28;20601;-74
2022/02/07 05:00:48;;;;;;;0.70;0.70;;;;;;;-145.69;100.00;72819.44;5093943;28;20228;-74
2022/02/07 05:03:17;;;;;;;2.77;0.60;;;;;;;-145.69;100.00;72821.41;5093849;28;20649;-74
2022/02/07 05:13:53;;;;;;;0.70;0.50;;;;;;;-145.69;100.00;72851.28;5093897;28;20679;-74
2022/02/07 05:16:25;;;;;;;0.53;0.40;;;;;;;-145.69;100.00;72853.28;5093592;28;20214;-74
2022/02/07 05:18:56;;;;;;;0.60;0.60;;;;;;;-145.69;100.00;72859.25;5093589;28;20649;-74
2022/02/07 05:21:25;;;;;;;0.83;0.57;;;;;;;-145.69;100.00;72871.19;5094128;28;20225;-74
2022/02/07 05:23:53;;;;;;;0.90;0.50;;;;;;;-145.69;100.00;72883.13;5093401;28;20233;-75
2022/02/07 05:26:20;;;;;;;1.03;0.63;;;;;;;-145.69;100.00;72881.13;5093457;28;20251;-74
2022/02/07 05:28:47;;;;;;;0.50;0.50;;;;;;;-145.69;100.00;72899.06;5093411;28;20293;-75
2022/02/07 05:31:14;;;;;;;0.70;0.70;;;;;;;-145.69;100.00;72909.00;5094032;28;20204;-75
2022/02/07 05:33:41;;;;;;;1.30;0.60;;;;;;;-145.69;100.00;72909.00;5093497;28;20198;-75
2022/02/07 05:36:09;;;;;;;0.70;0.70;;;;;;;-145.69;100.00;72914.97;5093810;28;20204;-75
2022/02/07 05:38:39;;;;;;;0.93;0.60;;;;;;;-145.69;100.00;72916.97;5093321;28;20190;-74
2022/02/07 05:41:07;;;;;;;0.60;0.60;;;;;;;-145.69;100.00;72918.97;5093354;28;20208;-75
2022/02/07 05:43:34;;;;;;;2.80;0.63;;;;;;;-145.69;100.00;72930.91;5093298;28;20718;-74
2022/02/07 05:46:01;;;;;;;0.63;0.63;;;;;;;-145.69;100.00;72940.84;5093579;28;20244;-75
2022/02/07 05:48:27;;;;;;;0.53;0.50;;;;;;;-145.69;100.00;72944.84;5093328;28;20599;-75
2022/02/07 05:50:54;;;;;;;1.83;0.90;;;;;;;-145.69;100.00;72960.75;5093559;28;20198;-75
2022/02/07 05:53:20;;;;;;;2.77;0.70;;;;;;;-145.69;100.00;72962.75;5093309;28;20248;-75
2022/02/07 05:55:48;;;;;;;0.80;0.60;;;;;;;-145.69;100.00;72970.72;5093393;28;20202;-75
2022/02/07 05:58:15;;;;;;;2.07;0.93;;;;;;;-145.69;100.00;72978.69;5093095;28;20205;-75
2022/02/07 06:00:41;;;;;;;1.73;0.63;;;;;;;-145.69;100.00;72986.63;5093373;28;20198;-75
2022/02/07 06:03:08;;;;;;;2.17;0.77;;;;;;;-145.69;100.00;72990.63;5093146;28;20218;-75
2022/02/07 06:05:35;;;;;;;5.53;0.90;;;;;;;-145.69;100.00;73006.53;5093233;28;20672;-75
2022/02/07 06:08:01;;;;;;;2.67;1.37;;;;;;;-145.69;100.00;73012.53;5092935;28;20257;-75
2022/02/07 06:10:28;;;;;;;5.07;1.00;;;;;;;-145.69;100.00;73012.53;5092978;28;20213;-75
2022/02/07 06:12:55;;;;;;;2.30;1.00;;;;;;;-145.69;100.00;73026.44;5092993;28;20653;-75
2022/02/07 06:15:22;;;;;;;4.30;0.80;;;;;;;-145.69;100.00;73034.41;5093018;28;20202;-75
2022/02/07 06:17:52;;;;;;;5.10;1.00;;;;;;;-145.69;100.00;73040.38;5093146;28;20312;-75
2022/02/07 06:20:19;;;;;;;3.57;1.20;;;;;;;-145.69;100.00;73050.34;5093033;28;20241;-75
2022/02/07 06:22:46;;;;;;;3.73;1.20;;;;;;;-145.69;100.00;73062.28;5092543;28;20226;-75
2022/02/07 06:25:13;;;;;;;2.77;0.80;;;;;;;-145.69;100.00;73060.28;5093179;28;20190;-75
2022/02/07 06:27:39;;;;;;;2.10;0.90;;;;;;;-145.69;100.00;73068.25;5093261;28;20199;-75
2022/02/07 06:30:10;;;;;;;3.77;1.20;;;;;;;-145.69;100.00;73074.22;5092271;28;20704;-75
2022/02/07 06:32:37;;;;;;;4.73;0.93;;;;;;;-145.69;100.00;73080.19;5092795;28;20196;-75
2022/02/07 06:35:03;;;;;;;8.90;1.97;;;;;;;-145.69;100.00;73096.13;5092794;28;20665;-75
2022/02/07 06:37:30;;;;;;;3.43;1.70;;;;;;;-145.69;100.00;73102.09;5092372;28;20190;-76
2022/02/07 06:39:56;;;;;;;7.37;1.70;;;;;;;-145.69;100.00;73102.09;5093135;28;20225;-76
2022/02/07 06:42:23;;;;;;;7.93;1.30;;;;;;;-145.69;100.00;73104.09;5092628;28;20251;-76
2022/02/07 06:44:49;;;;;;;3.43;1.17;;;;;;;-145.69;100.00;73112.06;5092820;28;20225;-76
2022/02/07 06:47:17;;;;;;;3.53;1.20;;;;;;;-145.69;100.00;73120.00;5092555;28;20190;-75
2022/02/07 06:49:43;;;;;;;5.27;1.40;;;;;;;-145.69;100.00;73122.00;5092979;28;20194;-76
2022/02/07 06:52:10;;;;;;;5.93;1.13;;;;;;;-145.69;100.00;73126.00;5092583;28;20215;-76
2022/02/07 06:54:37;;;;;;;14.10;1.63;;;;;;;-145.69;100.00;73122.00;5092558;28;20826;-76
2022/02/07 06:57:04;;;;;;;4.13;1.43;;;;;;;-145.69;100.00;73133.94;5092766;28;20591;-76
2022/02/07 06:59:34;;;;;;;5.50;1.30;;;;;;;-145.69;100.00;73133.94;5092787;28;20190;-76
2022/02/07 07:02:01;;;;;;;3.53;1.60;;;;;;;-145.69;100.00;73141.91;5092968;28;20201;-76
2022/02/07 07:04:29;;;;;;;2.50;1.10;;;;;;;-145.69;100.00;73147.88;5092422;28;20229;-76
2022/02/07 07:06:56;;;;;;;3.63;1.47;;;;;;;-145.69;100.00;73153.84;5092346;28;20198;-76
2022/02/07 07:09:23;;;;;;;10.73;1.90;;;;;;;-145.69;100.00;73161.81;5093969;28;20271;-76
2022/02/07 07:11:49;;;;;;;3.70;1.70;;;;;;;-145.69;100.00;73167.78;5096551;28;20202;-76
2022/02/07 07:14:18;;;;;;;5.93;1.37;;;;;;;-145.69;100.00;73171.78;5096301;28;20194;-76
2022/02/07 07:16:55;;;;;;;15.30;2.17;;;;;;;-145.69;100.00;73171.78;5096208;28;20285;-76
2022/02/07 07:19:22;;;;;;;6.27;1.80;;;;;;;-145.69;100.00;73177.75;5095957;28;20657;-76
2022/02/07 07:21:50;;;;;;;6.03;1.40;;;;;;;-145.69;100.00;73173.75;5096320;28;20687;-76
2022/02/07 07:24:17;;;;;;;6.37;2.00;;;;;;;-145.69;100.00;73181.72;5096026;28;20233;-75
2022/02/07 07:26:44;;;;;;;4.10;2.10;;;;;;;-145.69;100.00;73185.72;5079793;28;20276;-76
2022/02/07 07:29:14;;;;;;;9.90;1.90;;;;;;;-145.69;100.00;73165.81;5096301;28;20280;-76
2022/02/07 07:31:45;;;;;;;8.37;2.40;;;;;;;-145.69;100.00;73189.69;5096626;28;20198;-75
2022/02/07 07:34:15;;;;;;;11.13;1.93;;;;;;;-145.69;100.00;73195.66;5080779;28;20199;-75
2022/02/07 07:36:42;;;;;;;3.17;1.17;;;;;;;-145.69;100.00;73193.66;5076094;28;20195;-76
2022/02/07 07:39:10;;;;;;;8.33;2.00;;;;;;;-145.69;100.00;73181.72;5075797;28;20684;-76
2022/02/07 07:41:38;;;;;;;8.70;2.53;;;;;;;-145.69;100.00;73185.72;5075668;28;20202;-75
2022/02/07 07:44:05;;;;;;;9.67;2.10;;;;;;;-145.69;100.00;73189.69;5084145;28;20217;-76
2022/02/07 07:46:31;;;;;;;7.70;1.93;;;;;;;-145.69;100.00;73193.66;5095846;28;20202;-75
2022/02/07 07:49:02;;;;;;;3.87;1.70;;;;;;;-145.69;100.00;73193.66;5095331;28;20210;-75
2022/02/07 07:51:39;;;;;;;11.20;1.63;;;;;;;-145.69;100.00;73189.69;5095817;28;20201;-76
2022/02/07 07:54:27;;;;;;;6.87;2.03;;;;;;;-145.69;100.00;73189.69;5095662;28;20649;-76
2022/02/07 08:02:37;;;;;;;9.60;1.70;;;;;;;-145.69;100.00;73187.69;4979185;28;20247;-74
2022/02/07 08:05:14;;;;;;;11.63;2.10;;;;;;;-145.69;100.00;73193.66;4993118;28;20280;-75
2022/02/07 08:07:41;;;;;;;7.27;2.10;;;;;;;-145.69;100.00;73183.72;5044196;28;20197;-75
2022/02/07 08:10:27;;;;;;;7.87;1.90;;;;;;;-145.69;100.00;73165.81;5095521;28;20659;-75
2022/02/07 08:12:55;;;;;;;10.13;2.03;;;;;;;-145.69;100.00;73177.75;5079352;28;20644;-75
2022/02/07 08:15:21;;;;;;;7.67;1.97;;;;;;;-145.69;100.00;73185.72;5095389;28;20206;-75
2022/02/07 08:17:48;;;;;;;3.97;1.83;;;;;;;-145.69;100.00;73189.69;5095074;28;20187;-75
2022/02/07 08:20:14;;;;;;;7.80;2.30;;;;;;;-145.69;100.00;73205.63;5094430;28;20243;-75
2022/02/07 08:22:40;;;;;;;9.47;1.97;;;;;;;-145.69;100.00;73219.56;5094810;28;20222;-75
2022/02/07 08:25:08;;;;;;;4.83;2.20;;;;;;;-145.69;100.00;73195.66;5094907;28;20275;-75
2022/02/07 08:27:34;;;;;;;10.70;2.70;;;;;;;-145.69;100.00;73205.63;5094849;28;20190;-75
2022/02/07 08:30:02;;;;;;;10.60;2.30;;;;;;;-145.69;100.00;73199.66;5094617;28;20194;-75
2022/02/07 08:32:29;;;;;;;8.00;2.67;;;;;;;-145.69;100.00;73185.72;5094363;28;20199;-75
2022/02/07 08:34:59;;;;;;;9.03;2.27;;;;;;;-145.69;100.00;73201.63;5093659;28;20197;-75
2022/02/07 08:37:26;;;;;;;8.70;2.53;;;;;;;-145.69;100.00;73215.56;5092609;28;20354;-75
2022/02/07 08:39:52;;;;;;;12.03;3.07;;;;;;;-145.69;100.00;73233.50;5092869;28;20592;-75
2022/02/07 08:42:19;;;;;;;9.47;3.53;;;;;;;-145.69;100.00;73229.50;5092390;28;20688;-75
2022/02/07 08:44:45;;;;;;;11.23;3.07;;;;;;;-145.69;100.00;73245.44;5092375;28;20724;-75
2022/02/07 08:47:13;;;;;;;10.10;3.10;;;;;;;-145.69;100.00;73257.38;5092263;28;20657;-75
2022/02/07 08:49:39;;;;;;;11.10;3.33;;;;;;;-145.69;100.00;73231.50;5092947;28;20206;-75
2022/02/07 08:52:07;;;;;;;12.90;3.03;;;;;;;-145.69;100.00;73253.41;5094173;28;20220;-75
2022/02/07 08:54:34;;;;;;;13.50;3.57;;;;;;;-145.69;100.00;73265.34;5094424;28;20202;-75
2022/02/07 08:57:12;;;;;;;12.87;3.03;;;;;;;-145.69;100.00;73271.31;5094149;28;20198;-75
2022/02/07 08:59:51;;;;;;;15.53;2.80;;;;;;;-145.69;100.00;73281.25;5094498;28;20205;-75
2022/02/07 09:02:34;;;;;;;11.70;3.10;;;;;;;-145.69;100.00;73277.28;5094172;28;20202;-75
2022/02/07 09:05:16;;;;;;;14.13;5.13;;;;;;;-145.69;100.00;73287.25;5094325;28;20330;-75
2022/02/07 09:07:48;;;;;;;11.80;3.60;;;;;;;-145.69;100.00;73269.31;5094378;28;20228;-75
2022/02/07 09:10:15;;;;;;;15.53;4.80;;;;;;;-145.69;100.00;73273.31;5093742;28;20205;-75
2022/02/07 09:12:44;;;;;;;9.27;3.40;;;;;;;-145.69;100.00;73273.31;5093580;28;20201;-75
2022/02/07 09:15:29;;;;;;;13.73;3.30;;;;;;;-145.69;100.00;73281.25;5094038;28;20255;-75
2022/02/07 09:18:02;;;;;;;10.47;3.00;;;;;;;-145.69;100.00;73285.25;5093902;28;20198;-75
2022/02/07 09:20:31;;;;;;;10.40;2.80;;;;;;;-145.69;100.00;73279.28;5094154;28;20230;-75
2022/02/07 09:22:57;;;;;;;11.33;2.73;;;;;;;-145.69;100.00;73267.34;5093502;28;20226;-75
2022/02/07 09:25:24;;;;;;;12.80;4.33;;;;;;;-145.69;100.00;73283.25;5094105;28;20229;-75
2022/02/07 09:27:50;;;;;;;13.07;4.13;;;;;;;-145.69;100.00;73285.25;5093840;28;20194;-75
2022/02/07 09:30:17;;;;;;;11.80;3.77;;;;;;;-145.69;100.00;73297.19;5094106;28;20201;-76
2022/02/07 09:32:45;;;;;;;11.73;2.70;;;;;;;-145.69;100.00;73301.19;5094787;28;20545;-75
2022/02/07 09:35:14;;;;;;;11.40;3.00;;;;;;;-145.69;100.00;73311.13;5093980;28;20244;-75
2022/02/07 09:37:40;;;;;;;9.20;2.50;;;;;;;-145.69;100.00;73313.13;5093451;28;20255;-75
2022/02/07 09:40:08;;;;;;;13.77;2.67;;;;;;;-145.69;100.00;73311.13;5093050;28;20247;-75
2022/02/07 09:42:35;;;;;;;9.97;2.73;;;;;;;-145.69;100.00;73325.06;5093494;28;20190;-75
2022/02/07 09:45:09;;;;;;;8.63;2.93;;;;;;;-145.69;100.00;73323.06;5093115;28;20230;-75
2022/02/07 09:47:38;;;;;;;11.50;2.73;;;;;;;-145.69;100.00;73341.00;5093784;28;20198;-75
2022/02/07 09:50:06;;;;;;;7.23;2.80;;;;;;;-145.69;100.00;73331.03;5093760;28;20194;-74
2022/02/07 09:52:34;;;;;;;12.17;3.63;;;;;;;-145.69;100.00;73348.97;5096922;28;20190;-76
2022/02/07 09:55:01;;;;;;;9.77;3.00;;;;;;;-145.69;100.00;73344.97;5097042;28;20538;-75
2022/02/07 09:57:28;;;;;;;16.63;3.17;;;;;;;-145.69;100.00;73333.03;5094596;28;20198;-76
2022/02/07 09:59:56;;;;;;;11.33;2.93;;;;;;;-145.69;100.00;73346.97;5094484;28;20194;-76
2022/02/07 10:02:30;;;;;;;15.70;3.40;;;;;;;-145.69;100.00;73341.00;5094255;28;20441;-76
2022/02/07 10:05:01;;;;;;;10.67;2.97;;;;;;;-145.69;100.00;73354.94;5093044;28;20229;-77
2022/02/07 10:07:36;;;;;;;13.13;2.87;;;;;;;-145.69;100.00;73348.97;5092763;28;20245;-78
2022/02/07 10:10:19;;;;;;;14.60;4.27;;;;;;;-145.69;100.00;73342.97;5093872;28;20198;-76
2022/02/07 10:13:06;;;;;;;14.50;2.50;;;;;;;-145.69;100.00;73370.84;5096628;28;20200;-78
2022/02/07 10:15:37;;;;;;;10.77;2.40;;;;;;;-145.69;100.00;73390.75;5095085;28;20592;-76
2022/02/07 10:18:16;;;;;;;13.23;2.73;;;;;;;-145.69;100.00;73386.78;5093428;28;20194;-76
2022/02/07 10:37:52;;;;;;;15.60;4.23;;;;;;;-145.69;100.00;73400.72;5073186;28;20198;-76
2022/02/07 10:40:26;;;;;;;12.03;3.37;;;;;;;-145.69;100.00;73406.69;5090588;28;20199;-77
2022/02/07 10:43:14;;;;;;;11.87;2.87;;;;;;;-145.69;100.00;73412.66;5092863;28;20193;-76
2022/02/07 10:45:59;;;;;;;8.03;2.60;;;;;;;-145.69;100.00;73430.56;5096709;28;20232;-77
2022/02/07 10:48:37;;;;;;;19.40;3.77;;;;;;;-145.69;100.00;73432.56;5097084;28;20198;-76
2022/02/07 10:51:06;;;;;;;14.87;3.23;;;;;;;-145.69;100.00;73416.66;5096872;28;20226;-76
2022/02/07 10:53:35;;;;;;;11.57;2.80;;;;;;;-145.69;100.00;73408.69;5096900;28;20251;-77
2022/02/07 10:56:02;;;;;;;8.17;3.00;;;;;;;-145.69;100.00;73392.75;5096605;28;20541;-76
2022/02/07 10:58:31;;;;;;;19.87;3.17;;;;;;;-145.69;100.00;73420.63;5096875;28;20209;-77
2022/02/07 11:01:05;;;;;;;16.40;3.17;;;;;;;-145.69;100.00;73428.59;5096507;28;20680;-77
2022/02/07 11:03:40;;;;;;;17.97;2.47;;;;;;;-145.69;100.00;73420.63;5096017;28;20218;-76
2022/02/07 11:06:09;;;;;;;15.03;3.30;;;;;;;-145.69;100.00;73430.56;5096482;28;20225;-76
2022/02/07 11:08:45;;;;;;;16.80;2.63;;;;;;;-145.69;100.00;73432.56;5096346;28;20198;-76
2022/02/07 11:11:35;;;;;;;20.50;7.93;;;;;;;-145.69;100.00;73412.66;5097006;28;20200;-76
2022/02/07 11:14:23;;;;;;;14.57;2.83;;;;;;;-145.69;100.00;73414.66;5096534;28;20201;-76
2022/02/07 11:17:02;;;;;;;10.67;2.80;;;;;;;-145.69;100.00;73432.56;5096969;28;20202;-77
2022/02/07 11:19:46;;;;;;;12.97;2.53;;;;;;;-145.69;100.00;73438.53;5096212;28;20201;-77
2022/02/07 11:22:36;;;;;;;5.70;2.23;;;;;;;-145.69;100.00;73440.53;5096392;28;20236;-76
2022/02/07 11:25:22;;;;;;;21.67;3.80;;;;;;;-145.69;100.00;73454.47;5096164;28;20218;-76
2022/02/07 11:27:52;;;;;;;11.07;3.07;;;;;;;-145.69;100.00;73448.50;5095911;28;20198;-76
2022/02/07 11:30:40;;;;;;;16.13;2.63;;;;;;;-145.69;100.00;73434.56;5096475;28;20285;-76
2022/02/07 11:33:08;;;;;;;18.50;3.67;;;;;;;-145.69;100.00;73430.56;5096279;28;20198;-76
2022/02/07 11:35:50;;;;;;;17.67;2.97;;;;;;;-145.69;100.00;73438.53;5095513;28;20212;-77
2022/02/07 11:38:19;;;;;;;11.67;2.50;;;;;;;-145.69;100.00;73432.56;5077082;28;20206;-76
2022/02/07 11:40:59;;;;;;;16.73;2.90;;;;;;;-145.69;100.00;73434.56;5096455;28;20202;-76
2022/02/07 11:43:29;;;;;;;23.17;3.00;;;;;;;-145.69;100.00;73428.59;5095828;28;20277;-76
2022/02/07 11:45:59;;;;;;;9.47;2.87;;;;;;;-145.69;100.00;73438.53;5095804;28;20222;-76
2022/02/07 11:48:37;;;;;;;14.27;3.80;;;;;;;-145.69;100.00;73448.50;5096045;28;20202;-76
2022/02/07 11:51:10;;;;;;;14.03;3.90;;;;;;;-145.69;100.00;73446.50;5096058;28;20251;-76
2022/02/07 11:53:41;;;;;;;13.23;2.50;;;;;;;-145.69;100.00;73442.53;5095318;28;20190;-76
2022/02/07 11:56:14;;;;;;;13.37;2.90;;;;;;;-145.69;100.00;73430.56;5094784;28;20221;-76
2022/02/07 11:58:49;;;;;;;9.13;2.07;;;;;;;-145.69;100.00;73460.44;5088461;28;20193;-76
2022/02/07 12:01:25;;;;;;;9.97;2.63;;;;;;;-145.69;100.00;73484.34;5095824;28;20205;-75
2022/02/07 12:03:53;;;;;;;9.80;2.50;;;;;;;-145.69;100.00;73476.38;5095107;28;20205;-76
2022/02/07 12:06:23;;;;;;;7.30;1.90;;;;;;;-145.69;100.00;73460.44;5095359;28;20267;-76
2022/02/07 12:08:49;;;;;;;9.57;2.00;;;;;;;-145.69;100.00;73454.47;5095228;28;20727;-76
2022/02/07 12:11:16;;;;;;;8.90;2.13;;;;;;;-145.69;100.00;73464.44;5095716;28;20588;-76
2022/02/07 12:13:44;;;;;;;10.33;2.03;;;;;;;-145.69;100.00;73462.44;5094999;28;20186;-76
2022/02/07 12:16:14;;;;;;;13.77;2.10;;;;;;;-145.69;100.00;73472.38;5095247;28;20683;-76
2022/02/07 12:18:42;;;;;;;6.17;2.00;;;;;;;-145.69;100.00;73474.38;5094968;28;20194;-75
2022/02/07 12:21:17;;;;;;;5.63;1.50;;;;;;;-145.69;100.00;73476.38;5095083;28;20205;-76
2022/02/07 12:23:49;;;;;;;13.70;1.90;;;;;;;-145.69;100.00;73488.31;5094645;28;20255;-75
2022/02/07 12:26:17;;;;;;;4.07;1.50;;;;;;;-145.69;100.00;73496.28;5094875;28;20233;-75
2022/02/07 12:28:46;;;;;;;11.30;1.90;;;;;;;-145.69;100.00;73500.25;5094408;28;20737;-76
2022/02/07 12:31:19;;;;;;;11.90;2.07;;;;;;;-145.69;100.00;73498.28;5094799;28;20727;-76
2022/02/07 12:33:53;;;;;;;16.50;1.90;;;;;;;-145.69;100.00;73494.28;5094293;28;20672;-76
2022/02/07 12:36:20;;;;;;;6.40;1.90;;;;;;;-145.69;100.00;73480.34;5094783;28;20235;-75
2022/02/07 12:38:46;;;;;;;8.83;2.10;;;;;;;-145.69;100.00;73428.59;5094549;28;20195;-76
2022/02/07 12:41:15;;;;;;;12.50;2.70;;;;;;;-145.69;100.00;73408.69;5094473;28;20217;-76
2022/02/07 12:43:44;;;;;;;14.93;2.03;;;;;;;-145.69;100.00;73456.47;5081047;28;20199;-75
2022/02/07 12:46:13;;;;;;;12.63;3.10;;;;;;;-145.69;100.00;73436.56;5074208;28;20689;-76
2022/02/07 12:48:48;;;;;;;12.53;3.00;;;;;;;-145.69;100.00;73440.53;5087137;28;20289;-75